Time;durP1;ratioP1;P1;durP2;ratioP2;P2;SDS_P1;SDS_P2;PMS_P1;PMS_P2;Temp;Humidity;BMP_temperature;BMP_pressure;BME280_temperature;BME280_humidity;BME280_pressure;Samples;Min_cycle;Max_cycle;Signal;HPM_P1;HPM_P2
2021/01/02 00:03:33;;;;;;;;;;;;;;;17.25;59.10;99805.31;4875929;29;1423;-64
2021/01/02 00:09:54;;;;;;;;;;;;;;;17.24;59.48;99822.03;4798757;29;1378;-65
2021/01/02 00:13:09;;;;;;;;;;;;;;;;;;;;;
2021/01/02 00:16:35;;;;;;;;;;;;;;;17.19;59.22;99835.50;4800548;29;781;-67
2021/01/02 00:19:07;;;;;;;;;;;;;;;17.22;59.08;99837.09;4800731;29;1226;-66
2021/01/02 00:21:59;;;;;;;;;;;;;;;17.19;59.23;99843.41;4782120;29;1784;-65
2021/01/02 00:24:32;;;;;;;;;;;;;;;17.22;59.43;99839.72;4793935;29;1141;-64
2021/01/02 00:27:08;;;;;;;;;;;;;;;17.17;59.17;99847.94;4806861;29;1663;-64
2021/01/02 00:33:19;;;;;;;;;;;;;;;17.19;59.08;99855.72;4889482;24;2011;-69
2021/01/02 00:37:00;;;;;;;;;;;;;;;17.18;58.96;99856.66;4837902;29;1349;-65
2021/01/02 00:39:47;;;;;;;;;;;;;;;17.15;59.34;99851.59;4818470;29;1982;-65
2021/01/02 00:42:23;;;;;;;;;;;;;;;17.15;59.24;99844.53;4821823;29;1358;-67
2021/01/02 00:44:50;;;;;;;;;;;;;;;17.14;59.42;99852.56;4835938;29;804;-65
2021/01/02 00:47:20;;;;;;;;;;;;;;;17.12;59.15;99851.78;4836576;29;1374;-64
2021/01/02 00:49:49;;;;;;;;;;;;;;;17.13;59.04;99850.84;4836913;29;1054;-65
2021/01/02 00:52:27;;;;;;;;;;;;;;;17.10;59.43;99856.31;4851107;29;1242;-65
2021/01/02 00:55:12;;;;;;;;;;;;;;;17.13;59.34;99856.09;4851723;29;1398;-65
2021/01/02 00:57:51;;;;;;;;;;;;;;;17.12;58.86;99857.88;4836732;29;1239;-65
2021/01/02 01:00:18;;;;;;;;;;;;;;;17.06;58.85;99866.19;4837860;29;1911;-65
2021/01/02 01:02:55;;;;;;;;;;;;;;;17.06;58.74;99862.69;4836461;29;1239;-65
2021/01/02 01:05:22;;;;;;;;;;;;;;;17.07;58.98;99859.13;4837670;29;964;-66
2021/01/02 01:07:56;;;;;;;;;;;;;;;17.07;58.81;99867.03;4837514;29;1247;-69
2021/01/02 01:15:44;;;;;;;;;;;;;;;17.02;58.81;99879.63;4854375;29;1694;-65
2021/01/02 01:18:35;;;;;;;;;;;;;;;17.02;58.62;99869.97;4858934;29;1304;-65
2021/01/02 01:21:09;;;;;;;;;;;;;;;17.02;58.47;99871.75;4859475;29;1899;-66
2021/01/02 01:23:38;;;;;;;;;;;;;;;17.01;58.51;99873.53;4842688;29;1321;-65
2021/01/02 01:26:10;;;;;;;;;;;;;;;16.97;58.57;99877.28;4842824;29;1126;-66
2021/01/02 01:28:38;;;;;;;;;;;;;;;16.99;58.66;99871.94;4859476;29;1219;-65
2021/01/02 01:31:05;;;;;;;;;;;;;;;16.92;58.41;99869.69;4859426;29;905;-67
2021/01/02 01:33:31;;;;;;;;;;;;;;;16.96;58.65;99872.13;4859298;29;1310;-65
2021/01/02 01:36:03;;;;;;;;;;;;;;;16.90;58.41;99868.09;4858967;29;1135;-64
2021/01/02 01:38:34;;;;;;;;;;;;;;;16.93;58.72;99868.72;4859030;29;1245;-66
2021/01/02 01:41:29;;;;;;;;;;;;;;;16.91;58.56;99865.38;4839894;29;1961;-66
2021/01/02 01:44:04;;;;;;;;;;;;;;;16.91;58.43;99859.25;4857164;29;1362;-64
2021/01/02 01:46:48;;;;;;;;;;;;;;;16.89;58.45;99863.78;4859581;29;1219;-65
2021/01/02 01:49:36;;;;;;;;;;;;;;;16.88;58.42;99868.19;4859086;29;1078;-65
2021/01/02 01:52:11;;;;;;;;;;;;;;;16.87;58.53;99863.03;4859234;29;1357;-64
2021/01/02 01:54:46;;;;;;;;;;;;;;;16.89;58.88;99874.31;4858962;29;935;-64
2021/01/02 01:57:25;;;;;;;;;;;;;;;16.86;58.57;99875.34;4857702;29;1194;-66
2021/01/02 02:00:07;;;;;;;;;;;;;;;16.83;58.34;99862.38;4858978;29;1966;-64
2021/01/02 02:02:33;;;;;;;;;;;;;;;16.83;58.79;99869.44;4858818;29;1356;-64
2021/01/02 02:05:05;;;;;;;;;;;;;;;16.86;58.49;99870.09;4859137;29;1160;-66
2021/01/02 02:07:54;;;;;;;;;;;;;;;16.84;58.53;99871.94;4858791;29;1360;-65
2021/01/02 02:10:44;;;;;;;;;;;;;;;16.81;58.25;99873.94;4858552;29;760;-65
2021/01/02 02:13:26;;;;;;;;;;;;;;;16.81;58.43;99864.25;4858612;29;1194;-65
2021/01/02 02:15:57;;;;;;;;;;;;;;;16.79;58.34;99865.28;4859157;29;851;-67
2021/01/02 02:18:35;;;;;;;;;;;;;;;16.77;58.58;99865.41;4858893;29;1418;-65
2021/01/02 02:21:26;;;;;;;;;;;;;;;16.77;58.37;99870.66;4843223;29;1910;-65
2021/01/02 02:24:16;;;;;;;;;;;;;;;16.79;58.47;99868.75;4841331;29;1465;-64
2021/01/02 02:26:48;;;;;;;;;;;;;;;16.77;58.26;99861.91;4857463;29;1230;-65
2021/01/02 02:29:22;;;;;;;;;;;;;;;16.74;58.38;99860.31;4858688;29;777;-64
2021/01/02 02:31:49;;;;;;;;;;;;;;;16.72;58.46;99856.06;4858674;29;1262;-64
2021/01/02 02:34:20;;;;;;;;;;;;;;;16.74;58.31;99856.84;4858582;29;894;-64
2021/01/02 02:37:45;;;;;;;;;;;;;;;16.74;58.32;99849.81;4829036;29;1529;-68
2021/01/02 02:40:23;;;;;;;;;;;;;;;16.72;58.33;99843.78;4803755;29;1994;-65
2021/01/02 02:43:01;;;;;;;;;;;;;;;16.70;58.27;99853.56;4818570;29;1573;-65
2021/01/02 02:45:29;;;;;;;;;;;;;;;16.73;58.21;99857.78;4803679;29;871;-63
2021/01/02 02:48:36;;;;;;;;;;;;;;;16.71;58.30;99847.38;4781429;29;1677;-65
2021/01/02 02:54:18;;;;;;;;;;;;;;;16.69;58.48;99840.50;5023386;24;2094;-66
2021/01/02 02:57:17;;;;;;;;;;;;;;;16.69;58.27;99846.59;4878168;29;1324;-66
2021/01/02 03:00:23;;;;;;;;;;;;;;;16.65;58.27;99837.22;4836699;29;1988;-65
2021/01/02 03:03:10;;;;;;;;;;;;;;;16.66;58.36;99838.06;4816685;29;1467;-65
2021/01/02 03:06:06;;;;;;;;;;;;;;;16.66;58.50;99831.00;4894902;29;1156;-65
2021/01/02 03:08:43;;;;;;;;;;;;;;;16.65;58.18;99833.75;4894729;29;1225;-66
2021/01/02 03:11:24;;;;;;;;;;;;;;;16.65;58.44;99839.88;4878728;29;1307;-66
2021/01/02 03:14:02;;;;;;;;;;;;;;;16.64;58.52;99840.78;4894677;29;1222;-67
2021/01/02 03:19:09;;;;;;;;;;;;;;;16.63;58.65;99840.88;5031342;24;1510;-66
2021/01/02 03:25:52;;;;;;;;;;;;;;;16.60;58.42;99839.28;4827426;29;1282;-66
2021/01/02 03:28:29;;;;;;;;;;;;;;;16.58;58.40;99841.16;4818090;29;1251;-67
2021/01/02 03:30:56;;;;;;;;;;;;;;;16.57;58.07;99826.31;4891688;29;1233;-69
2021/01/02 03:33:37;;;;;;;;;;;;;;;16.58;58.32;99825.41;4853659;24;1591;-66
2021/01/02 03:36:35;;;;;;;;;;;;;;;16.55;58.26;99830.84;4838743;29;1020;-67
2021/01/02 03:39:14;;;;;;;;;;;;;;;16.55;58.22;99820.31;4838945;29;1059;-65
2021/01/02 03:41:49;;;;;;;;;;;;;;;16.57;58.11;99823.69;4838649;29;1990;-66
2021/01/02 03:44:15;;;;;;;;;;;;;;;16.54;58.14;99809.84;4838030;29;1058;-64
2021/01/02 03:46:41;;;;;;;;;;;;;;;16.53;58.33;99803.78;4852463;29;1318;-65
2021/01/02 03:52:31;;;;;;;;;;;;;;;16.50;58.26;99809.22;4865829;24;1947;-65
2021/01/02 03:54:57;;;;;;;;;;;;;;;16.52;58.21;99804.72;4875736;29;1493;-64
2021/01/02 03:57:27;;;;;;;;;;;;;;;16.50;58.12;99801.34;4875746;29;1252;-67
2021/01/02 04:00:06;;;;;;;;;;;;;;;16.50;57.99;99800.50;4875471;29;1968;-65
2021/01/02 04:02:33;;;;;;;;;;;;;;;16.52;58.49;99804.72;4875445;29;1163;-64
2021/01/02 04:04:59;;;;;;;;;;;;;;;16.49;57.99;99804.91;4873555;29;1717;-66
2021/01/02 04:07:34;;;;;;;;;;;;;;;16.48;57.97;99794.47;4865639;29;1779;-65
2021/01/02 04:10:01;;;;;;;;;;;;;;;16.47;58.25;99798.91;4849834;29;1791;-65
2021/01/02 04:12:27;;;;;;;;;;;;;;;16.47;57.98;99804.16;4871494;29;1729;-65
2021/01/02 04:14:53;;;;;;;;;;;;;;;16.46;57.94;99801.63;4871765;29;1729;-65
2021/01/02 04:17:19;;;;;;;;;;;;;;;16.42;57.91;99801.81;4870345;29;1776;-63
2021/01/02 04:19:45;;;;;;;;;;;;;;;16.45;57.80;99797.28;4864922;29;1919;-65
2021/01/02 04:22:11;;;;;;;;;;;;;;;16.42;57.78;99793.91;4871207;29;1851;-66
2021/01/02 04:24:38;;;;;;;;;;;;;;;16.42;58.00;99793.06;4864402;29;2078;-66
2021/01/02 04:27:19;;;;;;;;;;;;;;;16.41;58.25;99792.22;4858267;29;1697;-65
2021/01/02 04:29:56;;;;;;;;;;;;;;;16.41;57.98;99783.50;4864979;29;1964;-65
2021/01/02 04:32:24;;;;;;;;;;;;;;;16.40;57.76;99787.06;4865936;29;1803;-66
2021/01/02 04:35:17;;;;;;;;;;;;;;;16.37;57.92;99780.22;4859535;29;1662;-66
2021/01/02 04:40:38;;;;;;;;;;;;;;;16.39;57.79;99775.72;4815240;29;1986;-65
2021/01/02 04:43:04;;;;;;;;;;;;;;;16.34;58.01;99772.53;4866547;29;1314;-64
2021/01/02 04:45:31;;;;;;;;;;;;;;;16.37;57.85;99776.75;4873233;29;781;-65
2021/01/02 04:48:03;;;;;;;;;;;;;;;16.36;57.88;99772.41;4873352;29;1210;-65
2021/01/02 04:50:31;;;;;;;;;;;;;;;16.32;58.02;99760.44;4875803;29;768;-65
2021/01/02 04:52:59;;;;;;;;;;;;;;;16.31;57.71;99777.97;4876967;29;1278;-66
2021/01/02 04:56:13;;;;;;;;;;;;;;;16.30;58.12;99768.41;4878574;29;825;-66
2021/01/02 04:58:48;;;;;;;;;;;;;;;16.32;57.59;99760.44;4766345;30;1414;-65
2021/01/02 05:01:18;;;;;;;;;;;;;;;16.29;57.71;99753.56;4850391;29;1938;-66
2021/01/02 05:03:45;;;;;;;;;;;;;;;16.31;57.96;99750.84;4862177;29;1351;-65
2021/01/02 05:06:21;;;;;;;;;;;;;;;16.31;58.01;99756.09;4878959;29;1081;-67
2021/01/02 05:08:57;;;;;;;;;;;;;;;16.27;57.80;99754.59;4878967;29;1207;-65
2021/01/02 05:11:33;;;;;;;;;;;;;;;16.27;57.82;99765.97;4862276;29;1080;-65
2021/01/02 05:14:01;;;;;;;;;;;;;;;16.28;57.68;99766.81;4846605;29;1490;-65
2021/01/02 05:16:46;;;;;;;;;;;;;;;16.24;57.68;99766.16;4879287;29;1140;-66
2021/01/02 05:19:15;;;;;;;;;;;;;;;16.24;57.80;99755.63;4879157;29;843;-66
2021/01/02 05:21:49;;;;;;;;;;;;;;;16.25;57.95;99761.75;4862309;29;1958;-65
2021/01/02 05:24:25;;;;;;;;;;;;;;;16.22;58.25;99761.94;4878578;29;843;-67
2021/01/02 05:27:03;;;;;;;;;;;;;;;16.24;57.85;99763.53;4862067;29;1356;-65
2021/01/02 05:29:38;;;;;;;;;;;;;;;16.24;57.89;99760.03;4878408;29;836;-66
2021/01/02 05:32:14;;;;;;;;;;;;;;;16.22;57.98;99767.19;4939868;23;1705;-65
2021/01/02 05:34:41;;;;;;;;;;;;;;;16.21;57.74;99765.50;4915850;29;867;-65
2021/01/02 05:37:11;;;;;;;;;;;;;;;16.23;57.43;99759.19;4915687;29;1234;-64
2021/01/02 05:39:38;;;;;;;;;;;;;;;16.20;57.77;99762.00;4915593;29;842;-65
2021/01/02 05:42:20;;;;;;;;;;;;;;;16.18;57.67;99757.78;4915664;29;1911;-65
2021/01/02 05:44:59;;;;;;;;;;;;;;;16.19;57.82;99755.09;4929766;29;1328;-65
2021/01/02 05:47:32;;;;;;;;;;;;;;;16.18;57.80;99752.53;4915241;29;1250;-64
2021/01/02 05:50:22;;;;;;;;;;;;;;;16.17;57.61;99748.25;4840901;29;1136;-65
2021/01/02 05:52:53;;;;;;;;;;;;;;;16.17;57.52;99748.25;4840890;29;1236;-66
2021/01/02 05:55:34;;;;;;;;;;;;;;;16.14;57.48;99759.75;4856013;29;1302;-69
2021/01/02 05:58:14;;;;;;;;;;;;;;;16.16;57.58;99751.81;4854894;29;1579;-63
2021/01/02 06:00:44;;;;;;;;;;;;;;;16.15;57.52;99752.72;4837540;29;1907;-64
2021/01/02 06:03:46;;;;;;;;;;;;;;;16.15;57.42;99750.09;4839119;29;1528;-65
2021/01/02 06:06:21;;;;;;;;;;;;;;;16.12;57.50;99745.88;4855879;29;961;-64
2021/01/02 06:08:50;;;;;;;;;;;;;;;16.09;57.53;99753.94;4912861;29;1294;-64
2021/01/02 06:11:18;;;;;;;;;;;;;;;16.12;57.36;99755.53;4915112;29;1023;-64
2021/01/02 06:13:48;;;;;;;;;;;;;;;16.10;57.40;99746.91;4914909;29;1218;-65
2021/01/02 06:16:15;;;;;;;;;;;;;;;16.08;57.54;99752.25;4915015;29;953;-65
2021/01/02 06:18:42;;;;;;;;;;;;;;;16.08;57.32;99754.88;4914809;29;1234;-65
2021/01/02 06:21:09;;;;;;;;;;;;;;;16.03;57.61;99750.84;4912719;29;1903;-66
2021/01/02 06:23:36;;;;;;;;;;;;;;;16.07;57.44;99753.22;4914967;29;1222;-64
2021/01/02 06:26:04;;;;;;;;;;;;;;;16.06;57.19;99753.28;4915105;29;736;-64
2021/01/02 06:31:39;;;;;;;;;;;;;;;16.05;57.35;99749.00;4912158;29;1223;-64
2021/01/02 06:34:13;;;;;;;;;;;;;;;16.02;57.38;99743.94;4900121;29;1532;-66
2021/01/02 06:36:43;;;;;;;;;;;;;;;16.01;57.36;99739.59;4862402;29;1230;-64
2021/01/02 06:39:21;;;;;;;;;;;;;;;16.00;57.48;99740.53;4895660;29;1077;-68
2021/01/02 06:41:48;;;;;;;;;;;;;;;15.98;57.35;99742.41;4863063;29;1911;-64
2021/01/02 06:44:33;;;;;;;;;;;;;;;16.00;57.30;99741.38;4878553;29;1276;-65
2021/01/02 06:47:18;;;;;;;;;;;;;;;15.99;57.37;99746.75;4878461;29;1247;-62
2021/01/02 06:49:54;;;;;;;;;;;;;;;15.97;57.39;99757.31;4878513;29;801;-66
2021/01/02 06:52:33;;;;;;;;;;;;;;;15.99;57.64;99747.56;4880130;29;1290;-64
2021/01/02 06:55:26;;;;;;;;;;;;;;;15.98;57.29;99753.78;4895548;29;791;-65
2021/01/02 06:58:12;;;;;;;;;;;;;;;15.96;57.64;99767.94;4875508;29;1513;-65
2021/01/02 07:00:38;;;;;;;;;;;;;;;15.95;57.26;99753.09;4895365;29;1911;-64
2021/01/02 07:03:17;;;;;;;;;;;;;;;15.97;57.46;99761.72;4895190;29;1227;-65
2021/01/02 07:05:58;;;;;;;;;;;;;;;15.94;57.42;99762.78;4892281;29;971;-66
2021/01/02 07:08:43;;;;;;;;;;;;;;;15.97;57.32;99759.09;4878436;29;1317;-64
2021/01/02 07:11:34;;;;;;;;;;;;;;;15.94;57.08;99756.66;4877970;29;1570;-65
2021/01/02 07:14:27;;;;;;;;;;;;;;;15.92;57.26;99758.56;4878711;29;1113;-64
2021/01/02 07:17:04;;;;;;;;;;;;;;;15.89;57.25;99764.84;4877609;29;1233;-65
2021/01/02 07:19:34;;;;;;;;;;;;;;;15.88;57.62;99757.03;4895151;29;913;-65
2021/01/02 07:22:17;;;;;;;;;;;;;;;15.89;57.42;99756.09;4893275;29;1903;-64
2021/01/02 07:24:48;;;;;;;;;;;;;;;15.89;57.32;99756.09;4877649;29;1236;-65
2021/01/02 07:27:16;;;;;;;;;;;;;;;15.87;57.15;99760.63;4894434;29;1305;-64
2021/01/02 07:30:04;;;;;;;;;;;;;;;15.83;57.33;99755.56;4894792;29;914;-65
2021/01/02 07:32:35;;;;;;;;;;;;;;;15.89;57.24;99748.22;4874429;29;1379;-64
2021/01/02 07:35:03;;;;;;;;;;;;;;;15.85;57.00;99760.69;4876648;29;942;-65
2021/01/02 07:37:32;;;;;;;;;;;;;;;15.85;57.05;99769.44;4877934;29;1358;-64
2021/01/02 07:40:12;;;;;;;;;;;;;;;15.85;57.66;99772.06;4877155;29;1227;-66
2021/01/02 07:42:47;;;;;;;;;;;;;;;15.84;57.37;99766.88;4893855;29;1225;-64
2021/01/02 07:45:14;;;;;;;;;;;;;;;15.87;57.09;99781.63;4894293;29;760;-65
2021/01/02 07:48:02;;;;;;;;;;;;;;;15.81;57.51;99799.41;4894207;29;1218;-65
2021/01/02 07:50:41;;;;;;;;;;;;;;;15.88;57.19;99793.81;4894209;29;1060;-66
2021/01/02 07:57:01;;;;;;;;;;;;;;;15.85;57.09;99810.59;4839514;29;1358;-65
2021/01/02 07:59:34;;;;;;;;;;;;;;;15.86;57.02;99814.91;4893423;29;942;-66
2021/01/02 08:02:38;;;;;;;;;;;;;;;15.84;57.25;99822.88;4838135;29;1920;-65
2021/01/02 08:05:06;;;;;;;;;;;;;;;15.78;57.33;99825.00;4854077;29;1313;-66
2021/01/02 08:07:33;;;;;;;;;;;;;;;15.77;57.13;99808.44;4854205;29;1321;-65
2021/01/02 08:12:52;;;;;;;;;;;;;;;15.72;57.10;99823.59;4842584;29;1331;-65
2021/01/02 08:16:07;;;;;;;;;;;;;;;15.78;57.13;99828.50;4781370;30;1151;-66
2021/01/02 08:18:43;;;;;;;;;;;;;;;15.80;57.13;99824.00;4781052;30;1291;-65
2021/01/02 08:21:09;;;;;;;;;;;;;;;15.78;57.17;99831.13;4780780;30;1976;-67
2021/01/02 08:23:35;;;;;;;;;;;;;;;15.71;56.97;99823.69;4817424;29;1963;-65
2021/01/02 08:26:02;;;;;;;;;;;;;;;15.74;56.87;99839.28;4893445;29;852;-66
2021/01/02 08:28:30;;;;;;;;;;;;;;;15.77;57.08;99826.81;4893700;29;1325;-66
2021/01/02 08:30:59;;;;;;;;;;;;;;;15.78;57.26;99825.00;4893519;29;1059;-67
2021/01/02 08:33:32;;;;;;;;;;;;;;;15.70;57.10;99829.88;4893562;29;1399;-68
2021/01/02 08:35:58;;;;;;;;;;;;;;;15.74;57.14;99832.25;4893836;29;1129;-65
2021/01/02 08:38:28;;;;;;;;;;;;;;;15.75;57.11;99825.19;4893361;29;1170;-67
2021/01/02 08:41:02;;;;;;;;;;;;;;;15.78;57.06;99825.88;4893509;29;1899;-65
2021/01/02 08:43:36;;;;;;;;;;;;;;;15.72;57.22;99825.38;4893387;29;1231;-65
2021/01/02 08:46:09;;;;;;;;;;;;;;;15.77;56.93;99829.44;4877574;29;1069;-66
2021/01/02 08:48:45;;;;;;;;;;;;;;;15.72;56.95;99830.63;4893328;29;1199;-66
2021/01/02 08:51:41;;;;;;;;;;;;;;;15.75;56.95;99840.94;4878960;29;1105;-67
2021/01/02 08:54:14;;;;;;;;;;;;;;;15.74;56.96;99845.38;4894141;29;969;-66
2021/01/02 08:56:54;;;;;;;;;;;;;;;15.68;57.25;99852.75;4892132;29;1265;-66
2021/01/02 08:59:23;;;;;;;;;;;;;;;15.72;56.95;99851.63;4893629;29;914;-66
2021/01/02 09:02:32;;;;;;;;;;;;;;;15.70;56.94;99856.97;4878233;29;1897;-66
2021/01/02 09:05:17;;;;;;;;;;;;;;;15.70;57.24;99848.25;4893243;29;1105;-67
2021/01/02 09:08:00;;;;;;;;;;;;;;;15.74;56.94;99853.25;4899591;23;1600;-66
2021/01/02 09:10:33;;;;;;;;;;;;;;;15.78;57.16;99857.38;4872126;29;1064;-67
2021/01/02 09:12:59;;;;;;;;;;;;;;;15.72;57.47;99862.97;4858174;29;1286;-65
2021/01/02 09:15:44;;;;;;;;;;;;;;;15.84;57.85;99864.03;4874726;29;1168;-66
2021/01/02 09:18:30;;;;;;;;;;;;;;;15.94;57.77;99856.47;4874215;29;1215;-69
2021/01/02 09:20:57;;;;;;;;;;;;;;;16.10;57.80;99862.53;4858141;29;1973;-66
2021/01/02 09:23:29;;;;;;;;;;;;;;;16.20;57.76;99864.50;4874499;29;1455;-66
2021/01/02 09:26:23;;;;;;;;;;;;;;;16.30;57.79;99865.63;4874474;29;1054;-64
2021/01/02 09:28:50;;;;;;;;;;;;;;;16.46;57.44;99869.97;4861181;29;1249;-68
2021/01/02 09:31:17;;;;;;;;;;;;;;;16.59;57.10;99866.53;4874609;29;730;-69
2021/01/02 09:33:43;;;;;;;;;;;;;;;16.68;57.07;99871.22;4874708;29;1316;-66
2021/01/02 09:36:13;;;;;;;;;;;;;;;16.74;56.99;99877.88;4876648;29;785;-67
2021/01/02 09:38:53;;;;;;;;;;;;;;;16.77;56.93;99875.91;4863040;29;1365;-67
2021/01/02 09:41:21;;;;;;;;;;;;;;;16.86;55.83;99885.00;4877866;29;1972;-67
2021/01/02 09:43:47;;;;;;;;;;;;;;;16.97;56.46;99889.59;4878131;29;1328;-66
2021/01/02 09:46:17;;;;;;;;;;;;;;;16.99;56.58;99887.72;4861099;29;1043;-67
2021/01/02 09:48:44;;;;;;;;;;;;;;;17.02;55.40;99887.53;4878069;29;1226;-66
2021/01/02 09:51:14;;;;;;;;;;;;;;;17.12;55.80;99891.25;4877539;29;782;-66
2021/01/02 09:53:40;;;;;;;;;;;;;;;17.21;55.19;99891.53;4878273;29;1211;-67
2021/01/02 09:56:15;;;;;;;;;;;;;;;17.36;55.37;99895.81;4877687;29;827;-67
2021/01/02 09:58:58;;;;;;;;;;;;;;;17.45;55.14;99892.56;4875054;29;1341;-67
2021/01/02 10:01:28;;;;;;;;;;;;;;;17.53;54.76;99892.09;4875233;29;1911;-66
2021/01/02 10:03:57;;;;;;;;;;;;;;;17.59;54.86;99897.00;4877203;29;1090;-65
2021/01/02 10:06:35;;;;;;;;;;;;;;;17.68;54.36;99901.66;4876794;29;717;-65
2021/01/02 10:09:10;;;;;;;;;;;;;;;17.76;54.35;99899.34;4859483;29;1582;-65
2021/01/02 10:12:21;;;;;;;;;;;;;;;17.82;54.37;99893.69;4789897;29;1320;-63
2021/01/02 10:14:51;;;;;;;;;;;;;;;17.87;54.19;99891.56;4821479;29;1060;-68
2021/01/02 10:24:09;;;;;;;;;;;;;;;17.99;54.46;99890.75;4883094;23;1784;-64
2021/01/02 10:27:06;;;;;;;;;;;;;;;18.04;54.54;99887.81;4877208;29;1272;-65
2021/01/02 10:29:51;;;;;;;;;;;;;;;18.14;54.32;99886.28;4876249;29;1494;-72
2021/01/02 10:32:26;;;;;;;;;;;;;;;18.18;54.56;99884.28;4877836;29;1282;-67
2021/01/02 10:34:56;;;;;;;;;;;;;;;18.37;54.06;99892.59;4873641;29;1821;-69
2021/01/02 10:37:28;;;;;;;;;;;;;;;18.24;54.34;99883.84;4844246;29;1297;-68
2021/01/02 10:39:57;;;;;;;;;;;;;;;18.28;54.69;99885.31;4871956;29;1179;-71
2021/01/02 10:42:30;;;;;;;;;;;;;;;18.37;54.05;99895.22;4887064;23;2036;-69
2021/01/02 10:44:57;;;;;;;;;;;;;;;18.42;53.93;99893.16;4869661;29;1339;-67
2021/01/02 10:47:27;;;;;;;;;;;;;;;18.38;53.96;99894.28;4878852;29;1318;-70
2021/01/02 10:50:29;;;;;;;;;;;;;;;18.35;54.21;99899.78;4893249;29;902;-66
2021/01/02 10:53:02;;;;;;;;;;;;;;;18.38;53.96;99896.94;4866062;29;1424;-70
2021/01/02 10:59:33;;;;;;;;;;;;;;;18.21;53.75;99892.78;4872211;29;1394;-71
2021/01/02 11:01:59;;;;;;;;;;;;;;;18.12;53.77;99901.31;4866989;29;1919;-70
2021/01/02 11:08:10;;;;;;;;;;;;;;;18.12;53.96;99888.16;4890673;29;1717;-70
2021/01/02 11:14:00;;;;;;;;;;;;;;;18.33;53.71;99880.59;4944520;23;1727;-70
2021/01/02 11:16:34;;;;;;;;;;;;;;;18.34;53.85;99887.53;4874498;29;1692;-66
2021/01/02 11:19:00;;;;;;;;;;;;;;;18.46;53.68;99889.31;4854927;29;1583;-70
2021/01/02 11:21:26;;;;;;;;;;;;;;;18.47;53.80;99885.75;4848968;29;1907;-69
2021/01/02 11:24:06;;;;;;;;;;;;;;;18.27;53.98;99888.91;4835696;29;1229;-72
2021/01/02 11:30:32;;;;;;;;;;;;;;;18.15;54.27;99880.03;4781219;29;1363;-70
2021/01/02 11:39:39;;;;;;;;;;;;;;;17.90;54.79;99872.94;5160015;24;2127;-75
2021/01/02 11:49:22;;;;;;;;;;;;;;;17.71;54.94;99864.56;5074836;23;1705;-71
2021/01/02 11:56:31;;;;;;;;;;;;;;;17.61;55.34;99860.84;4813760;29;1222;-76
2021/01/02 11:59:34;;;;;;;;;;;;;;;17.54;55.22;99858.72;4742630;30;1487;-72
2021/01/02 12:16:36;;;;;;;;;;;;;;;17.30;55.38;99840.91;4815810;29;1698;-71
2021/01/02 12:20:10;;;;;;;;;;;;;;;17.26;55.07;99835.97;4802039;29;983;-74
2021/01/02 12:23:45;;;;;;;;;;;;;;;17.24;55.03;99836.03;4858875;23;1789;-72
2021/01/02 12:26:31;;;;;;;;;;;;;;;17.19;55.36;99834.66;4822553;29;1208;-71
2021/01/02 12:28:58;;;;;;;;;;;;;;;17.15;55.44;99827.91;4857442;29;879;-71
2021/01/02 12:31:50;;;;;;;;;;;;;;;17.15;55.28;99826.13;4872671;29;1254;-71
2021/01/02 12:34:43;;;;;;;;;;;;;;;17.14;55.37;99826.22;4859604;29;1206;-72
2021/01/02 12:37:39;;;;;;;;;;;;;;;17.11;55.13;99818.53;4855885;29;1332;-71
2021/01/02 12:40:54;;;;;;;;;;;;;;;17.10;55.18;99824.72;4874005;29;866;-75
2021/01/02 12:43:24;;;;;;;;;;;;;;;17.05;55.23;99811.88;4905832;23;1628;-70
2021/01/02 12:45:54;;;;;;;;;;;;;;;16.96;55.36;99820.38;4873499;29;1122;-71
2021/01/02 12:48:20;;;;;;;;;;;;;;;16.92;55.62;99817.09;4873803;29;1227;-71
2021/01/02 12:50:47;;;;;;;;;;;;;;;16.96;55.40;99809.84;4857054;29;1125;-71
2021/01/02 12:53:26;;;;;;;;;;;;;;;16.92;55.43;99805.72;4874113;29;1325;-72
2021/01/02 12:56:04;;;;;;;;;;;;;;;16.90;55.64;99799.72;4842433;29;1317;-70
2021/01/02 12:58:57;;;;;;;;;;;;;;;16.90;55.31;99805.78;4856713;29;1254;-73
2021/01/02 13:01:41;;;;;;;;;;;;;;;16.87;55.38;99798.09;4873771;29;1911;-71
2021/01/02 13:04:08;;;;;;;;;;;;;;;16.79;55.52;99795.13;4873365;29;764;-69
2021/01/02 13:06:50;;;;;;;;;;;;;;;16.74;55.18;99797.22;4873033;29;1352;-71
2021/01/02 13:09:24;;;;;;;;;;;;;;;16.82;54.94;99791.44;4842186;29;1535;-67
2021/01/02 13:15:40;;;;;;;;;;;;;;;16.71;55.75;99796.56;4817548;29;1128;-72
2021/01/02 13:22:07;;;;;;;;;;;;;;;16.83;52.70;99774.72;4854393;29;1948;-66
2021/01/02 13:24:51;;;;;;;;;;;;;;;16.68;52.26;99780.97;4857182;29;1627;-67
2021/01/02 13:27:40;;;;;;;;;;;;;;;16.64;51.71;99785.56;4848330;29;1328;-69
2021/01/02 13:30:21;;;;;;;;;;;;;;;16.56;51.19;99787.00;4858610;29;1475;-68
2021/01/02 13:33:19;;;;;;;;;;;;;;;16.55;50.76;99796.66;4930597;23;1792;-71
2021/01/02 13:35:45;;;;;;;;;;;;;;;16.52;50.57;99791.56;4859361;29;855;-68
2021/01/02 13:38:20;;;;;;;;;;;;;;;16.50;50.05;99793.47;4858848;29;1242;-72
2021/01/02 13:40:46;;;;;;;;;;;;;;;16.47;49.68;99785.75;4856924;29;1982;-69
2021/01/02 13:43:12;;;;;;;;;;;;;;;16.42;49.65;99785.19;4857232;29;1230;-69
2021/01/02 13:45:38;;;;;;;;;;;;;;;16.44;49.48;99793.00;4857293;29;1241;-71
2021/01/02 13:48:45;;;;;;;;;;;;;;;16.45;49.27;99792.88;4858428;29;1364;-73
2021/01/02 13:51:18;;;;;;;;;;;;;;;16.51;49.62;99787.25;4841594;29;1228;-67
2021/01/02 13:54:00;;;;;;;;;;;;;;;16.51;49.60;99795.13;4856946;29;1052;-71
2021/01/02 13:56:35;;;;;;;;;;;;;;;16.44;51.54;99793.84;4857955;29;839;-67
2021/01/02 13:59:07;;;;;;;;;;;;;;;16.39;52.00;99795.88;4858415;29;1055;-67
2021/01/02 14:01:34;;;;;;;;;;;;;;;16.53;50.68;99795.91;4858016;29;1911;-69
2021/01/02 14:04:19;;;;;;;;;;;;;;;16.59;50.69;99792.91;4843564;29;1507;-67
2021/01/02 14:09:56;;;;;;;;;;;;;;;17.05;50.67;99790.00;4853914;29;1091;-69
2021/01/02 14:12:30;;;;;;;;;;;;;;;17.24;48.73;99788.66;4856671;29;1389;-68
2021/01/02 14:15:12;;;;;;;;;;;;;;;17.41;48.59;99791.06;4856958;29;1199;-70
2021/01/02 14:18:17;;;;;;;;;;;;;;;17.51;48.99;99793.91;4728243;30;1496;-67
2021/01/02 14:20:44;;;;;;;;;;;;;;;17.57;49.15;99793.53;4809574;29;1907;-67
2021/01/02 14:23:11;;;;;;;;;;;;;;;17.72;48.28;99803.03;4857500;29;1400;-70
2021/01/02 14:25:47;;;;;;;;;;;;;;;17.79;48.30;99801.69;4856731;29;1568;-69
2021/01/02 14:28:32;;;;;;;;;;;;;;;17.84;48.25;99799.56;4849233;29;1442;-71
2021/01/02 14:30:59;;;;;;;;;;;;;;;17.91;47.65;99813.19;4841666;29;1184;-68
2021/01/02 14:34:03;;;;;;;;;;;;;;;18.03;48.97;99807.91;4869215;29;1275;-72
2021/01/02 14:36:32;;;;;;;;;;;;;;;18.14;49.05;99811.63;4876974;29;1179;-70
2021/01/02 14:39:16;;;;;;;;;;;;;;;18.25;49.36;99811.72;4877612;29;1266;-68
2021/01/02 14:41:46;;;;;;;;;;;;;;;18.29;49.79;99821.94;4859665;29;1903;-72
2021/01/02 14:44:13;;;;;;;;;;;;;;;18.44;49.84;99822.69;4876758;29;1378;-73
2021/01/02 14:46:39;;;;;;;;;;;;;;;18.45;50.29;99829.66;4876896;29;1324;-71
2021/01/02 14:49:06;;;;;;;;;;;;;;;18.71;50.31;99833.94;4877215;29;1196;-69
2021/01/02 14:51:43;;;;;;;;;;;;;;;18.62;50.49;99831.97;4876446;29;1382;-66
2021/01/02 14:54:14;;;;;;;;;;;;;;;18.61;51.66;99835.53;4859799;29;1350;-65
2021/01/02 14:57:06;;;;;;;;;;;;;;;18.62;52.14;99836.38;4846095;29;1324;-67
2021/01/02 14:59:58;;;;;;;;;;;;;;;18.79;52.71;99838.66;4876672;29;925;-69
2021/01/02 15:02:27;;;;;;;;;;;;;;;18.71;52.25;99847.16;4876114;29;1966;-68
2021/01/02 15:04:53;;;;;;;;;;;;;;;18.96;52.18;99847.09;4858992;29;1149;-66
2021/01/02 15:07:20;;;;;;;;;;;;;;;18.72;52.31;99848.84;4865437;29;1346;-67
2021/01/02 15:09:46;;;;;;;;;;;;;;;18.65;52.22;99842.31;4871595;29;1147;-68
2021/01/02 15:12:12;;;;;;;;;;;;;;;18.59;52.21;99848.00;4858551;29;1397;-70
2021/01/02 15:14:39;;;;;;;;;;;;;;;18.57;52.32;99849.06;4875677;29;858;-69
2021/01/02 15:17:06;;;;;;;;;;;;;;;18.61;52.43;99846.09;4875641;29;1376;-69
2021/01/02 15:19:32;;;;;;;;;;;;;;;18.60;52.31;99854.13;4875966;29;796;-70
2021/01/02 15:21:58;;;;;;;;;;;;;;;18.51;52.04;99843.25;4863241;29;1982;-71
2021/01/02 15:24:25;;;;;;;;;;;;;;;18.58;52.13;99848.94;4855598;29;1097;-67
2021/01/02 15:26:53;;;;;;;;;;;;;;;18.60;52.18;99848.84;4867963;29;1328;-69
2021/01/02 15:29:19;;;;;;;;;;;;;;;18.62;52.02;99850.44;4875217;29;772;-68
2021/01/02 15:31:52;;;;;;;;;;;;;;;18.60;51.92;99854.97;4863945;29;1420;-70
2021/01/02 15:34:23;;;;;;;;;;;;;;;18.58;52.03;99856.00;4856639;29;1760;-69
2021/01/02 15:37:28;;;;;;;;;;;;;;;18.62;51.99;99857.50;4867695;24;1735;-69